createdAt,value
2019-03-29T00:00:26.639Z,0.00
2019-03-29T00:01:26.631Z,0.00
2019-03-29T00:02:26.616Z,0.00
2019-03-29T00:03:26.608Z,0.00
2019-03-29T00:04:27.048Z,0.00
2019-03-29T00:05:26.582Z,0.00
2019-03-29T00:06:26.574Z,0.00
2019-03-29T00:07:39.005Z,0.00
2019-03-29T00:08:27.550Z,0.00
2019-03-29T00:09:26.536Z,0.00
2019-03-29T00:10:26.531Z,0.00
2019-03-29T00:11:26.519Z,0.00
2019-03-29T00:12:26.512Z,0.00
2019-03-29T00:13:26.494Z,0.00
2019-03-29T00:14:26.480Z,0.00
2019-03-29T00:15:26.643Z,0.00
2019-03-29T00:16:26.460Z,0.00
2019-03-29T00:17:26.451Z,0.00
2019-03-29T00:18:26.436Z,0.00
2019-03-29T00:19:26.475Z,0.00
2019-03-29T00:20:26.409Z,0.00
2019-03-29T00:21:26.570Z,0.00
2019-03-29T00:22:26.392Z,0.00
2019-03-29T00:23:26.381Z,0.00
2019-03-29T00:24:26.367Z,0.00
2019-03-29T00:25:26.356Z,0.00
2019-03-29T00:26:26.349Z,0.00
2019-03-29T00:27:38.258Z,0.00
2019-03-29T00:28:26.321Z,0.00
2019-03-29T00:29:26.310Z,0.00
2019-03-29T00:30:26.297Z,0.00
2019-03-29T00:31:26.289Z,0.00
2019-03-29T00:32:26.289Z,0.00
2019-03-29T00:33:26.268Z,0.00
2019-03-29T00:34:26.256Z,0.00
2019-03-29T00:35:26.246Z,0.00
2019-03-29T00:36:26.232Z,0.00
2019-03-29T00:37:26.261Z,0.00
2019-03-29T00:38:26.219Z,0.00
2019-03-29T00:39:26.196Z,0.00
2019-03-29T00:40:26.187Z,0.00
2019-03-29T00:41:26.175Z,0.00
2019-03-29T00:42:26.270Z,0.00
2019-03-29T00:43:26.165Z,0.00
2019-03-29T00:44:26.255Z,0.00
2019-03-29T00:45:26.134Z,0.00
2019-03-29T00:46:26.122Z,0.00
2019-03-29T00:47:26.109Z,0.00
2019-03-29T00:48:26.277Z,0.00
2019-03-29T00:49:26.087Z,0.00
2019-03-29T00:50:26.074Z,0.00
2019-03-29T00:51:26.059Z,0.00
2019-03-29T00:52:26.053Z,0.00
2019-03-29T00:53:26.044Z,0.00
2019-03-29T00:54:26.071Z,0.00
2019-03-29T00:55:26.018Z,0.00
2019-03-29T00:56:26.005Z,0.00
2019-03-29T00:57:25.999Z,0.00
2019-03-29T00:58:37.765Z,0.00
2019-03-29T00:59:25.970Z,0.00
2019-03-29T01:00:25.971Z,0.00
2019-03-29T01:01:26.345Z,0.00
2019-03-29T01:02:25.939Z,0.00
2019-03-29T01:03:25.927Z,0.00
2019-03-29T01:04:25.922Z,0.00
2019-03-29T01:05:25.915Z,0.00
2019-03-29T01:06:25.890Z,0.00
2019-03-29T01:07:25.880Z,0.00
2019-03-29T01:08:25.869Z,0.00
2019-03-29T01:09:25.861Z,0.00
2019-03-29T01:10:26.018Z,0.00
2019-03-29T01:11:25.841Z,0.00
2019-03-29T01:12:25.825Z,0.00
2019-03-29T01:13:25.814Z,0.00
2019-03-29T01:14:25.807Z,0.00
2019-03-29T01:15:25.794Z,0.00
2019-03-29T01:16:25.785Z,0.00
2019-03-29T01:17:25.766Z,0.00
2019-03-29T01:18:25.760Z,0.00
2019-03-29T01:19:25.743Z,0.00
2019-03-29T01:20:25.732Z,0.00
2019-03-29T01:21:25.742Z,0.00
2019-03-29T01:22:25.709Z,0.00
2019-03-29T01:23:25.705Z,0.00
2019-03-29T01:24:25.690Z,0.00
2019-03-29T01:25:25.675Z,0.00
2019-03-29T01:26:27.035Z,0.00
2019-03-29T01:27:25.677Z,0.00
2019-03-29T01:28:25.650Z,0.00
2019-03-29T01:29:36.222Z,0.00
2019-03-29T01:30:25.620Z,0.00
2019-03-29T01:31:25.610Z,0.00
2019-03-29T01:32:25.615Z,0.00
2019-03-29T01:33:25.600Z,0.00
2019-03-29T01:34:25.578Z,0.00
2019-03-29T01:35:25.566Z,0.00
2019-03-29T01:36:25.555Z,0.00
2019-03-29T01:37:25.542Z,0.00
2019-03-29T01:38:25.546Z,0.00
2019-03-29T01:39:25.520Z,0.00
2019-03-29T01:40:25.515Z,0.00
2019-03-29T01:41:26.945Z,0.00
2019-03-29T01:42:25.486Z,0.00
2019-03-29T01:43:25.487Z,0.00
2019-03-29T01:44:25.472Z,0.00
2019-03-29T01:45:25.456Z,0.00
2019-03-29T01:46:25.459Z,0.00
2019-03-29T01:47:25.429Z,0.00
2019-03-29T01:48:25.417Z,0.00
2019-03-29T01:49:25.585Z,0.00
2019-03-29T01:50:25.397Z,0.00
2019-03-29T01:51:25.384Z,0.00
2019-03-29T01:52:25.374Z,0.00
2019-03-29T01:53:25.371Z,0.00
2019-03-29T01:54:25.351Z,0.00
2019-03-29T01:55:25.624Z,0.00
2019-03-29T01:56:25.330Z,0.00
2019-03-29T01:57:25.317Z,0.00
2019-03-29T01:58:25.445Z,0.00
2019-03-29T01:59:25.291Z,0.00
2019-03-29T02:00:36.506Z,0.00
2019-03-29T02:01:25.280Z,0.00
2019-03-29T02:02:25.266Z,0.00
2019-03-29T02:03:25.253Z,0.00
2019-03-29T02:04:25.271Z,0.00
2019-03-29T02:05:25.227Z,0.00
2019-03-29T02:06:25.228Z,0.00
2019-03-29T02:07:25.202Z,0.00
2019-03-29T02:08:35.276Z,0.00
2019-03-29T02:09:26.180Z,0.00
2019-03-29T02:10:25.177Z,0.00
2019-03-29T02:11:25.206Z,0.00
2019-03-29T02:12:25.154Z,0.00
2019-03-29T02:13:26.009Z,0.00
2019-03-29T02:14:25.140Z,0.00
2019-03-29T02:15:25.135Z,0.00
2019-03-29T02:16:25.192Z,0.00
2019-03-29T02:17:25.103Z,0.00
2019-03-29T02:18:25.099Z,0.00
2019-03-29T02:19:25.083Z,0.00
2019-03-29T02:20:25.063Z,0.00
2019-03-29T02:21:25.056Z,0.00
2019-03-29T02:22:25.081Z,0.00
2019-03-29T02:23:25.025Z,0.00
2019-03-29T02:24:25.020Z,0.00
2019-03-29T02:25:25.002Z,0.00
2019-03-29T02:26:24.994Z,0.00
2019-03-29T02:27:24.983Z,0.00
2019-03-29T02:28:25.009Z,0.00
2019-03-29T02:29:24.955Z,0.00
2019-03-29T02:30:24.950Z,0.00
2019-03-29T02:31:36.018Z,0.00
2019-03-29T02:32:25.540Z,0.00
2019-03-29T02:33:24.924Z,0.00
2019-03-29T02:34:24.911Z,0.00
2019-03-29T02:35:24.893Z,0.00
2019-03-29T02:36:24.877Z,0.00
2019-03-29T02:37:24.874Z,0.00
2019-03-29T02:38:24.861Z,0.00
2019-03-29T02:39:26.835Z,0.00
2019-03-29T02:40:24.849Z,0.00
2019-03-29T02:41:24.825Z,0.00
2019-03-29T02:42:24.820Z,0.00
2019-03-29T02:43:24.805Z,0.00
2019-03-29T02:44:24.926Z,0.00
2019-03-29T02:45:24.793Z,0.00
2019-03-29T02:46:25.887Z,0.00
2019-03-29T02:47:24.755Z,0.00
2019-03-29T02:48:24.742Z,0.00
2019-03-29T02:49:24.730Z,0.00
2019-03-29T02:50:24.762Z,0.00
2019-03-29T02:51:24.708Z,0.00
2019-03-29T02:52:24.696Z,0.00
2019-03-29T02:53:24.695Z,0.00
2019-03-29T02:54:24.676Z,0.00
2019-03-29T02:55:24.663Z,0.00
2019-03-29T02:56:24.667Z,0.00
2019-03-29T02:57:24.639Z,0.00
2019-03-29T02:58:24.629Z,0.00
2019-03-29T02:59:24.628Z,0.00
2019-03-29T03:00:24.611Z,0.00
2019-03-29T03:01:24.639Z,0.00
2019-03-29T03:02:34.914Z,0.00
2019-03-29T03:03:24.579Z,0.00
2019-03-29T03:04:24.567Z,0.00
2019-03-29T03:05:24.554Z,0.00
2019-03-29T03:06:24.542Z,0.00
2019-03-29T03:07:24.548Z,0.00
2019-03-29T03:08:24.517Z,0.00
2019-03-29T03:09:24.507Z,0.00
2019-03-29T03:10:24.497Z,0.00
2019-03-29T03:11:24.501Z,0.00
2019-03-29T03:12:24.479Z,0.00
2019-03-29T03:13:24.469Z,0.00
2019-03-29T03:14:24.509Z,0.00
2019-03-29T03:15:24.435Z,0.00
2019-03-29T03:16:24.433Z,0.00
2019-03-29T03:17:24.413Z,0.00
2019-03-29T03:18:24.441Z,0.00
2019-03-29T03:19:24.407Z,0.00
2019-03-29T03:20:24.385Z,0.00
2019-03-29T03:21:24.375Z,0.00
2019-03-29T03:22:24.380Z,0.00
2019-03-29T03:23:24.346Z,0.00
2019-03-29T03:24:24.362Z,0.00
2019-03-29T03:25:24.345Z,0.00
2019-03-29T03:26:24.322Z,0.00
2019-03-29T03:27:24.304Z,0.00
2019-03-29T03:28:24.298Z,0.00
2019-03-29T03:29:24.305Z,0.00
2019-03-29T03:30:24.330Z,0.00
2019-03-29T03:31:24.267Z,0.00
2019-03-29T03:32:24.278Z,0.00
2019-03-29T03:33:34.859Z,0.00
2019-03-29T03:34:24.241Z,0.00
2019-03-29T03:35:24.276Z,0.00
2019-03-29T03:36:24.214Z,0.00
2019-03-29T03:37:24.241Z,0.00
2019-03-29T03:38:24.182Z,0.00
2019-03-29T03:39:32.235Z,0.00
2019-03-29T03:40:25.168Z,0.00
2019-03-29T03:41:24.188Z,0.00
2019-03-29T03:42:24.138Z,0.00
2019-03-29T03:43:24.126Z,0.00
2019-03-29T03:44:24.117Z,0.00
2019-03-29T03:45:24.107Z,0.00
2019-03-29T03:46:24.093Z,0.00
2019-03-29T03:47:24.092Z,0.00
2019-03-29T03:48:24.067Z,0.00
2019-03-29T03:49:24.054Z,104.00
2019-03-29T03:50:24.041Z,160.00
2019-03-29T03:51:24.032Z,188.00
2019-03-29T03:52:24.081Z,196.00
2019-03-29T03:53:24.009Z,196.00
2019-03-29T03:54:24.000Z,200.00
2019-03-29T03:55:23.984Z,200.00
2019-03-29T03:56:23.974Z,200.00
2019-03-29T03:57:23.963Z,200.00
2019-03-29T03:58:23.999Z,196.00
2019-03-29T03:59:23.942Z,196.00
2019-03-29T04:00:23.949Z,196.00
2019-03-29T04:01:23.920Z,196.00
2019-03-29T04:02:23.913Z,192.00
2019-03-29T04:03:23.894Z,192.00
2019-03-29T04:04:37.661Z,192.00
2019-03-29T04:05:23.874Z,192.00
2019-03-29T04:06:23.864Z,192.00
2019-03-29T04:07:23.851Z,192.00
2019-03-29T04:08:23.847Z,192.00
2019-03-29T04:09:23.829Z,192.00
2019-03-29T04:10:23.825Z,192.00
2019-03-29T04:11:23.809Z,196.00
2019-03-29T04:12:23.801Z,8.00
2019-03-29T04:13:23.781Z,8.00
2019-03-29T04:14:23.784Z,8.00
2019-03-29T04:15:23.761Z,8.00
2019-03-29T04:16:23.751Z,8.00
2019-03-29T04:17:23.737Z,8.00
2019-03-29T04:18:23.736Z,8.00
2019-03-29T04:19:23.728Z,8.00
2019-03-29T04:20:23.746Z,8.00
2019-03-29T04:21:23.695Z,8.00
2019-03-29T04:22:23.692Z,8.00
2019-03-29T04:23:23.691Z,8.00
2019-03-29T04:24:23.658Z,4.00
2019-03-29T04:25:23.658Z,4.00
2019-03-29T04:26:23.643Z,4.00
2019-03-29T04:27:23.628Z,4.00
2019-03-29T04:28:23.620Z,8.00
2019-03-29T04:29:23.601Z,8.00
2019-03-29T04:30:23.603Z,8.00
2019-03-29T04:31:23.618Z,8.00
2019-03-29T04:32:23.572Z,8.00
2019-03-29T04:33:23.568Z,8.00
2019-03-29T04:34:23.559Z,8.00
2019-03-29T04:35:34.109Z,8.00
2019-03-29T04:36:23.532Z,8.00
2019-03-29T04:37:23.533Z,8.00
2019-03-29T04:38:23.506Z,8.00
2019-03-29T04:39:23.543Z,8.00
2019-03-29T04:40:23.482Z,8.00
2019-03-29T04:41:23.464Z,8.00
2019-03-29T04:42:23.495Z,8.00
2019-03-29T04:43:23.442Z,12.00
2019-03-29T04:44:23.430Z,12.00
2019-03-29T04:45:23.424Z,8.00
2019-03-29T04:46:23.411Z,12.00
2019-03-29T04:47:23.401Z,12.00
2019-03-29T04:48:23.395Z,12.00
2019-03-29T04:49:23.379Z,12.00
2019-03-29T04:50:23.361Z,12.00
2019-03-29T04:51:23.350Z,12.00
2019-03-29T04:52:23.344Z,16.00
2019-03-29T04:53:23.337Z,12.00
2019-03-29T04:54:23.329Z,16.00
2019-03-29T04:55:23.318Z,16.00
2019-03-29T04:56:23.301Z,16.00
2019-03-29T04:57:23.283Z,16.00
2019-03-29T04:58:23.274Z,16.00
2019-03-29T04:59:23.273Z,16.00
2019-03-29T05:00:23.250Z,16.00
2019-03-29T05:01:23.250Z,16.00
2019-03-29T05:02:23.234Z,16.00
2019-03-29T05:03:23.213Z,20.00
2019-03-29T05:04:23.249Z,20.00
2019-03-29T05:05:23.191Z,16.00
2019-03-29T05:06:34.066Z,16.00
2019-03-29T05:07:23.174Z,16.00
2019-03-29T05:08:23.156Z,16.00
2019-03-29T05:09:23.148Z,20.00
2019-03-29T05:10:23.175Z,20.00
2019-03-29T05:11:23.125Z,20.00
2019-03-29T05:12:23.119Z,20.00
2019-03-29T05:13:23.104Z,20.00
2019-03-29T05:14:23.090Z,20.00
2019-03-29T05:15:23.141Z,20.00
2019-03-29T05:16:23.108Z,20.00
2019-03-29T05:17:23.055Z,24.00
2019-03-29T05:18:23.049Z,20.00
2019-03-29T05:19:23.032Z,20.00
2019-03-29T05:20:23.025Z,24.00
2019-03-29T05:21:23.016Z,24.00
2019-03-29T05:22:23.009Z,24.00
2019-03-29T05:23:22.993Z,24.00
2019-03-29T05:24:22.975Z,24.00
2019-03-29T05:25:22.970Z,24.00
2019-03-29T05:26:25.421Z,24.00
2019-03-29T05:27:23.121Z,20.00
2019-03-29T05:28:22.936Z,20.00
2019-03-29T05:29:22.922Z,20.00
2019-03-29T05:30:22.915Z,24.00
2019-03-29T05:31:22.900Z,24.00
2019-03-29T05:32:22.888Z,24.00
2019-03-29T05:33:22.886Z,20.00
2019-03-29T05:34:22.863Z,20.00
2019-03-29T05:35:22.860Z,20.00
2019-03-29T05:36:22.841Z,24.00
2019-03-29T05:37:33.955Z,24.00
2019-03-29T05:38:22.863Z,24.00
2019-03-29T05:39:22.809Z,24.00
2019-03-29T05:40:34.290Z,24.00
2019-03-29T05:41:23.789Z,24.00
2019-03-29T05:42:22.775Z,20.00
2019-03-29T05:43:22.770Z,24.00
2019-03-29T05:44:22.772Z,24.00
2019-03-29T05:45:22.746Z,20.00
2019-03-29T05:46:22.731Z,24.00
2019-03-29T05:47:22.718Z,24.00
2019-03-29T05:48:22.706Z,24.00
2019-03-29T05:49:22.739Z,24.00
2019-03-29T05:50:22.684Z,20.00
2019-03-29T05:51:22.682Z,24.00
2019-03-29T05:52:22.666Z,24.00
2019-03-29T05:53:22.655Z,24.00
2019-03-29T05:54:22.643Z,24.00
2019-03-29T05:55:32.489Z,28.00
2019-03-29T05:56:23.652Z,24.00
2019-03-29T05:57:22.604Z,28.00
2019-03-29T05:58:22.600Z,132.00
2019-03-29T05:59:22.584Z,192.00
2019-03-29T06:00:24.623Z,220.00
2019-03-29T06:01:22.567Z,228.00
2019-03-29T06:02:22.727Z,228.00
2019-03-29T06:03:22.543Z,232.00
2019-03-29T06:04:22.529Z,232.00
2019-03-29T06:05:22.521Z,232.00
2019-03-29T06:06:22.508Z,224.00
2019-03-29T06:07:22.499Z,224.00
2019-03-29T06:08:33.246Z,224.00
2019-03-29T06:09:22.469Z,220.00
2019-03-29T06:10:22.458Z,224.00
2019-03-29T06:11:22.449Z,228.00
2019-03-29T06:12:22.435Z,224.00
2019-03-29T06:13:22.427Z,228.00
2019-03-29T06:14:22.428Z,228.00
2019-03-29T06:15:22.409Z,232.00
2019-03-29T06:16:22.398Z,232.00
2019-03-29T06:17:22.381Z,232.00
2019-03-29T06:18:22.366Z,232.00
2019-03-29T06:19:22.367Z,232.00
2019-03-29T06:20:22.347Z,224.00
2019-03-29T06:21:22.338Z,232.00
2019-03-29T06:22:22.327Z,232.00
2019-03-29T06:23:22.317Z,232.00
2019-03-29T06:24:22.342Z,228.00
2019-03-29T06:25:22.294Z,228.00
2019-03-29T06:26:22.278Z,228.00
2019-03-29T06:27:22.264Z,228.00
2019-03-29T06:28:22.256Z,232.00
2019-03-29T06:29:22.241Z,224.00
2019-03-29T06:30:22.275Z,228.00
2019-03-29T06:31:22.219Z,232.00
2019-03-29T06:32:22.212Z,220.00
2019-03-29T06:33:22.199Z,232.00
2019-03-29T06:34:22.188Z,232.00
2019-03-29T06:35:22.178Z,216.00
2019-03-29T06:36:22.207Z,220.00
2019-03-29T06:37:22.155Z,232.00
2019-03-29T06:38:22.146Z,236.00
2019-03-29T06:39:34.266Z,240.00
2019-03-29T06:40:22.120Z,240.00
2019-03-29T06:41:22.110Z,236.00
2019-03-29T06:42:22.131Z,240.00
2019-03-29T06:43:22.083Z,236.00
2019-03-29T06:44:22.142Z,220.00
2019-03-29T06:45:22.067Z,228.00
2019-03-29T06:46:22.049Z,240.00
2019-03-29T06:47:22.040Z,228.00
2019-03-29T06:48:22.040Z,224.00
2019-03-29T06:49:22.017Z,220.00
2019-03-29T06:50:22.009Z,232.00
2019-03-29T06:51:21.992Z,228.00
2019-03-29T06:52:22.027Z,228.00
2019-03-29T06:53:21.973Z,228.00
2019-03-29T06:54:21.961Z,240.00
2019-03-29T06:55:21.951Z,224.00
2019-03-29T06:56:21.938Z,232.00
2019-03-29T06:57:21.988Z,232.00
2019-03-29T06:58:21.960Z,232.00
2019-03-29T06:59:21.907Z,228.00
2019-03-29T07:00:21.897Z,220.00
2019-03-29T07:01:21.890Z,228.00
2019-03-29T07:02:21.874Z,228.00
2019-03-29T07:03:21.855Z,228.00
2019-03-29T07:04:21.856Z,240.00
2019-03-29T07:05:21.837Z,240.00
2019-03-29T07:06:21.822Z,244.00
2019-03-29T07:07:21.813Z,244.00
2019-03-29T07:08:21.802Z,240.00
2019-03-29T07:09:21.794Z,224.00
2019-03-29T07:10:32.493Z,224.00
2019-03-29T07:11:21.769Z,224.00
2019-03-29T07:12:21.760Z,232.00
2019-03-29T07:13:21.741Z,228.00
2019-03-29T07:14:21.747Z,228.00
2019-03-29T07:15:21.718Z,224.00
2019-03-29T07:16:21.721Z,216.00
2019-03-29T07:17:21.702Z,212.00
2019-03-29T07:18:21.691Z,208.00
2019-03-29T07:19:21.698Z,208.00
2019-03-29T07:20:21.673Z,212.00
2019-03-29T07:21:22.217Z,216.00
2019-03-29T07:22:21.642Z,216.00
2019-03-29T07:23:21.633Z,212.00
2019-03-29T07:24:21.623Z,216.00
2019-03-29T07:25:21.779Z,216.00
2019-03-29T07:26:21.594Z,220.00
2019-03-29T07:27:21.589Z,216.00
2019-03-29T07:28:21.577Z,220.00
2019-03-29T07:29:21.562Z,228.00
2019-03-29T07:30:21.554Z,232.00
2019-03-29T07:31:21.555Z,228.00
2019-03-29T07:32:21.526Z,232.00
2019-03-29T07:33:21.525Z,228.00
2019-03-29T07:34:21.509Z,232.00
2019-03-29T07:35:21.499Z,232.00
2019-03-29T07:36:21.654Z,240.00
2019-03-29T07:37:21.473Z,248.00
2019-03-29T07:38:21.467Z,260.00
2019-03-29T07:39:21.448Z,264.00
2019-03-29T07:40:21.452Z,268.00
2019-03-29T07:41:32.726Z,276.00
2019-03-29T07:42:21.413Z,276.00
2019-03-29T07:43:24.055Z,284.00
2019-03-29T07:44:21.392Z,284.00
2019-03-29T07:45:21.382Z,292.00
2019-03-29T07:46:21.369Z,292.00
2019-03-29T07:47:21.371Z,292.00
2019-03-29T07:48:21.345Z,288.00
2019-03-29T07:49:21.339Z,280.00
2019-03-29T07:50:21.347Z,284.00
2019-03-29T07:51:21.314Z,280.00
2019-03-29T07:52:21.339Z,284.00
2019-03-29T07:53:21.334Z,280.00
2019-03-29T07:54:21.282Z,280.00
2019-03-29T07:55:21.275Z,268.00
2019-03-29T07:56:21.267Z,264.00
2019-03-29T07:57:21.255Z,264.00
2019-03-29T07:58:21.231Z,264.00
2019-03-29T07:59:21.231Z,264.00
2019-03-29T08:00:21.211Z,264.00
2019-03-29T08:01:21.202Z,264.00
2019-03-29T08:02:21.188Z,264.00
2019-03-29T08:03:21.658Z,268.00
2019-03-29T08:04:21.721Z,268.00
2019-03-29T08:05:21.191Z,264.00
2019-03-29T08:06:21.150Z,280.00
2019-03-29T08:07:27.016Z,272.00
2019-03-29T08:08:24.745Z,264.00
2019-03-29T08:09:22.499Z,260.00
2019-03-29T08:10:27.339Z,248.00
2019-03-29T08:11:26.237Z,240.00
2019-03-29T08:12:31.779Z,248.00
2019-03-29T08:13:21.109Z,260.00
2019-03-29T08:14:21.059Z,256.00
2019-03-29T08:15:21.047Z,256.00
2019-03-29T08:16:21.041Z,268.00
2019-03-29T08:17:21.019Z,268.00
2019-03-29T08:18:21.017Z,268.00
2019-03-29T08:19:21.006Z,260.00
2019-03-29T08:20:44.643Z,264.00
2019-03-29T08:21:22.153Z,264.00
2019-03-29T08:22:20.968Z,252.00
2019-03-29T08:23:20.957Z,268.00
2019-03-29T08:24:20.948Z,256.00
2019-03-29T08:25:20.945Z,276.00
2019-03-29T08:26:20.928Z,272.00
2019-03-29T08:27:20.919Z,280.00
2019-03-29T08:28:20.903Z,268.00
2019-03-29T08:29:20.889Z,292.00
2019-03-29T08:30:20.877Z,272.00
2019-03-29T08:31:21.041Z,252.00
2019-03-29T08:32:20.855Z,264.00
2019-03-29T08:33:20.846Z,264.00
2019-03-29T08:34:20.838Z,272.00
2019-03-29T08:35:20.826Z,264.00
2019-03-29T08:36:20.820Z,260.00
2019-03-29T08:37:20.838Z,276.00
2019-03-29T08:38:20.787Z,272.00
2019-03-29T08:39:27.975Z,264.00
2019-03-29T08:40:21.836Z,268.00
2019-03-29T08:41:20.756Z,260.00
2019-03-29T08:42:20.743Z,260.00
2019-03-29T08:43:33.578Z,256.00
2019-03-29T08:44:20.722Z,232.00
2019-03-29T08:45:20.717Z,272.00
2019-03-29T08:46:20.700Z,276.00
2019-03-29T08:47:20.689Z,288.00
2019-03-29T08:48:20.681Z,292.00
2019-03-29T08:49:20.673Z,304.00
2019-03-29T08:50:20.653Z,332.00
2019-03-29T08:51:20.643Z,356.00
2019-03-29T08:52:20.636Z,364.00
2019-03-29T08:53:20.624Z,360.00
2019-03-29T08:54:20.782Z,352.00
2019-03-29T08:55:20.600Z,360.00
2019-03-29T08:56:20.588Z,352.00
2019-03-29T08:57:20.575Z,340.00
2019-03-29T08:58:20.565Z,348.00
2019-03-29T08:59:20.560Z,336.00
2019-03-29T09:00:20.551Z,364.00
2019-03-29T09:01:20.535Z,368.00
2019-03-29T09:02:20.525Z,364.00
2019-03-29T09:03:20.510Z,364.00
2019-03-29T09:04:21.804Z,352.00
2019-03-29T09:05:20.497Z,344.00
2019-03-29T09:06:20.482Z,372.00
2019-03-29T09:07:20.464Z,372.00
2019-03-29T09:08:20.455Z,376.00
2019-03-29T09:09:20.448Z,388.00
2019-03-29T09:10:20.467Z,396.00
2019-03-29T09:11:20.420Z,392.00
2019-03-29T09:12:20.412Z,392.00
2019-03-29T09:13:20.407Z,388.00
2019-03-29T09:14:31.649Z,388.00
2019-03-29T09:15:20.380Z,392.00
2019-03-29T09:16:20.481Z,400.00
2019-03-29T09:17:20.354Z,412.00
2019-03-29T09:18:20.349Z,408.00
2019-03-29T09:19:20.338Z,380.00
2019-03-29T09:20:20.327Z,336.00
2019-03-29T09:21:20.313Z,352.00
2019-03-29T09:22:20.337Z,392.00
2019-03-29T09:23:20.296Z,392.00
2019-03-29T09:24:22.383Z,392.00
2019-03-29T09:25:21.170Z,388.00
2019-03-29T09:26:20.260Z,376.00
2019-03-29T09:27:20.248Z,380.00
2019-03-29T09:28:20.273Z,388.00
2019-03-29T09:29:20.220Z,396.00
2019-03-29T09:30:20.214Z,360.00
2019-03-29T09:31:20.199Z,400.00
2019-03-29T09:32:20.190Z,400.00
2019-03-29T09:33:20.179Z,372.00
2019-03-29T09:34:20.175Z,384.00
2019-03-29T09:35:20.161Z,380.00
2019-03-29T09:36:20.144Z,376.00
2019-03-29T09:37:20.138Z,352.00
2019-03-29T09:38:20.122Z,372.00
2019-03-29T09:39:20.290Z,372.00
2019-03-29T09:40:20.098Z,384.00
2019-03-29T09:41:20.087Z,380.00
2019-03-29T09:42:28.822Z,388.00
2019-03-29T09:43:21.064Z,388.00
2019-03-29T09:44:20.054Z,384.00
2019-03-29T09:45:30.513Z,368.00
2019-03-29T09:46:20.033Z,364.00
2019-03-29T09:47:20.024Z,356.00
2019-03-29T09:48:20.006Z,364.00
2019-03-29T09:49:19.999Z,340.00
2019-03-29T09:50:22.746Z,356.00
2019-03-29T09:51:19.979Z,364.00
2019-03-29T09:52:19.962Z,328.00
2019-03-29T09:53:19.952Z,348.00
2019-03-29T09:54:20.578Z,388.00
2019-03-29T09:55:19.934Z,372.00
2019-03-29T09:56:19.962Z,360.00
2019-03-29T09:57:19.905Z,360.00
2019-03-29T09:58:19.896Z,368.00
2019-03-29T09:59:23.003Z,368.00
2019-03-29T10:00:23.209Z,392.00
2019-03-29T10:01:20.936Z,368.00
2019-03-29T10:02:19.857Z,372.00
2019-03-29T10:03:19.840Z,380.00
2019-03-29T10:04:19.832Z,380.00
2019-03-29T10:05:20.481Z,356.00
2019-03-29T10:06:19.808Z,376.00
2019-03-29T10:07:19.834Z,368.00
2019-03-29T10:08:19.785Z,356.00
2019-03-29T10:09:19.770Z,380.00
2019-03-29T10:10:19.760Z,368.00
2019-03-29T10:11:22.011Z,356.00
2019-03-29T10:12:19.740Z,356.00
2019-03-29T10:13:19.733Z,360.00
2019-03-29T10:14:19.718Z,356.00
2019-03-29T10:15:19.706Z,356.00
2019-03-29T10:16:29.800Z,328.00
2019-03-29T10:17:19.733Z,312.00
2019-03-29T10:18:19.707Z,316.00
2019-03-29T10:19:19.657Z,328.00
2019-03-29T10:20:19.643Z,328.00
2019-03-29T10:21:19.633Z,344.00
2019-03-29T10:22:19.625Z,324.00
2019-03-29T10:23:19.612Z,332.00
2019-03-29T10:24:19.777Z,324.00
2019-03-29T10:25:20.449Z,340.00
2019-03-29T10:26:19.576Z,348.00
2019-03-29T10:27:19.571Z,336.00
2019-03-29T10:28:19.560Z,360.00
2019-03-29T10:29:19.547Z,312.00
2019-03-29T10:30:19.545Z,264.00
2019-03-29T10:31:31.551Z,272.00
2019-03-29T10:32:20.510Z,276.00
2019-03-29T10:33:19.498Z,284.00
2019-03-29T10:34:19.493Z,268.00
2019-03-29T10:35:19.521Z,264.00
2019-03-29T10:36:19.479Z,260.00
2019-03-29T10:37:19.454Z,256.00
2019-03-29T10:38:19.451Z,260.00
2019-03-29T10:39:19.430Z,252.00
2019-03-29T10:40:21.758Z,252.00
2019-03-29T10:41:22.728Z,252.00
2019-03-29T10:42:19.400Z,260.00
2019-03-29T10:43:19.388Z,244.00
2019-03-29T10:44:19.382Z,260.00
2019-03-29T10:45:19.371Z,256.00
2019-03-29T10:46:19.352Z,256.00
2019-03-29T10:47:43.296Z,252.00
2019-03-29T10:48:20.329Z,264.00
2019-03-29T10:49:19.319Z,264.00
2019-03-29T10:50:19.318Z,260.00
2019-03-29T10:51:19.302Z,256.00
2019-03-29T10:52:19.327Z,244.00
2019-03-29T10:53:19.285Z,260.00
2019-03-29T10:54:19.263Z,260.00
2019-03-29T10:55:19.253Z,256.00
2019-03-29T10:56:32.910Z,252.00
2019-03-29T10:57:20.276Z,260.00
2019-03-29T10:58:19.218Z,248.00
2019-03-29T10:59:27.139Z,252.00
2019-03-29T11:00:21.558Z,264.00
2019-03-29T11:01:19.196Z,260.00
2019-03-29T11:02:19.178Z,268.00
2019-03-29T11:03:19.173Z,268.00
2019-03-29T11:04:19.150Z,264.00
2019-03-29T11:05:19.143Z,256.00
2019-03-29T11:06:19.130Z,264.00
2019-03-29T11:07:19.119Z,256.00
2019-03-29T11:08:19.115Z,260.00
2019-03-29T11:09:19.111Z,260.00
2019-03-29T11:10:19.088Z,252.00
2019-03-29T11:11:19.174Z,256.00
2019-03-29T11:12:19.065Z,256.00
2019-03-29T11:13:19.052Z,260.00
2019-03-29T11:14:19.126Z,256.00
2019-03-29T11:15:19.027Z,252.00
2019-03-29T11:16:19.024Z,260.00
2019-03-29T11:17:19.009Z,264.00
2019-03-29T11:18:30.382Z,264.00
2019-03-29T11:19:18.989Z,272.00
2019-03-29T11:20:18.988Z,272.00
2019-03-29T11:21:18.968Z,252.00
2019-03-29T11:22:18.951Z,252.00
2019-03-29T11:23:18.946Z,252.00
2019-03-29T11:24:18.970Z,272.00
2019-03-29T11:25:18.921Z,264.00
2019-03-29T11:26:18.906Z,260.00
2019-03-29T11:27:22.238Z,244.00
2019-03-29T11:28:18.888Z,240.00
2019-03-29T11:29:18.873Z,240.00
2019-03-29T11:30:18.899Z,240.00
2019-03-29T11:31:18.851Z,260.00
2019-03-29T11:32:18.838Z,252.00
2019-03-29T11:33:18.826Z,248.00
2019-03-29T11:34:20.964Z,264.00
2019-03-29T11:35:18.807Z,260.00
2019-03-29T11:36:18.806Z,260.00
2019-03-29T11:37:18.781Z,260.00
2019-03-29T11:38:18.777Z,256.00
2019-03-29T11:39:18.762Z,264.00
2019-03-29T11:40:18.749Z,264.00
2019-03-29T11:41:18.784Z,268.00
2019-03-29T11:42:18.728Z,260.00
2019-03-29T11:43:26.578Z,268.00
2019-03-29T11:44:19.706Z,264.00
2019-03-29T11:45:18.703Z,268.00
2019-03-29T11:46:18.682Z,264.00
2019-03-29T11:47:18.867Z,256.00
2019-03-29T11:48:18.667Z,264.00
2019-03-29T11:49:29.674Z,256.00
2019-03-29T11:50:18.646Z,260.00
2019-03-29T11:51:20.034Z,256.00
2019-03-29T11:52:18.618Z,260.00
2019-03-29T11:53:18.616Z,264.00
2019-03-29T11:54:18.595Z,264.00
2019-03-29T11:55:18.630Z,256.00
2019-03-29T11:56:18.571Z,252.00
2019-03-29T11:57:18.581Z,264.00
2019-03-29T11:58:18.557Z,264.00
2019-03-29T11:59:18.548Z,264.00
2019-03-29T12:00:18.525Z,268.00
2019-03-29T12:01:18.517Z,268.00
2019-03-29T12:02:30.617Z,260.00
2019-03-29T12:03:19.495Z,260.00
2019-03-29T12:04:18.526Z,260.00
2019-03-29T12:05:18.472Z,260.00
2019-03-29T12:06:18.464Z,260.00
2019-03-29T12:07:18.452Z,264.00
2019-03-29T12:08:18.446Z,256.00
2019-03-29T12:09:18.429Z,264.00
2019-03-29T12:10:18.426Z,264.00
2019-03-29T12:11:18.405Z,244.00
2019-03-29T12:12:18.390Z,248.00
2019-03-29T12:13:18.382Z,248.00
2019-03-29T12:14:18.468Z,244.00
2019-03-29T12:15:18.399Z,228.00
2019-03-29T12:16:18.348Z,248.00
2019-03-29T12:17:18.335Z,248.00
2019-03-29T12:18:18.331Z,264.00
2019-03-29T12:19:18.314Z,268.00
2019-03-29T12:20:28.216Z,252.00
2019-03-29T12:21:18.364Z,264.00
2019-03-29T12:22:18.285Z,268.00
2019-03-29T12:23:18.268Z,84.00
2019-03-29T12:24:18.259Z,84.00
2019-03-29T12:25:18.254Z,80.00
2019-03-29T12:26:18.238Z,80.00
2019-03-29T12:27:18.248Z,72.00
2019-03-29T12:28:18.213Z,76.00
2019-03-29T12:29:18.207Z,80.00
2019-03-29T12:30:31.564Z,72.00
2019-03-29T12:31:19.176Z,76.00
2019-03-29T12:32:18.168Z,68.00
2019-03-29T12:33:18.196Z,84.00
2019-03-29T12:34:18.144Z,80.00
2019-03-29T12:35:18.132Z,76.00
2019-03-29T12:36:18.123Z,80.00
2019-03-29T12:37:18.114Z,84.00
2019-03-29T12:38:18.102Z,84.00
2019-03-29T12:39:18.096Z,84.00
2019-03-29T12:40:18.082Z,84.00
2019-03-29T12:41:18.069Z,84.00
2019-03-29T12:42:18.057Z,84.00
2019-03-29T12:43:18.071Z,84.00
2019-03-29T12:44:18.037Z,84.00
2019-03-29T12:45:18.024Z,76.00
2019-03-29T12:46:18.012Z,84.00
2019-03-29T12:47:18.001Z,84.00